Time;durP1;ratioP1;P1;durP2;ratioP2;P2;SDS_P1;SDS_P2;PMS_P1;PMS_P2;Temp;Humidity;BMP_temperature;BMP_pressure;BME280_temperature;BME280_humidity;BME280_pressure;Samples;Min_cycle;Max_cycle;Signal;HPM_P1;HPM_P2
2022/09/25 00:00:35;;;;;;;;;4.67;4.67;;;;;16.55;59.73;100660.03;5040177;28;45515;-65
2022/09/25 00:03:02;;;;;;;;;8.67;6.67;;;;;16.54;59.56;100647.66;5040292;28;45589;-66
2022/09/25 00:05:27;;;;;;;;;5.00;5.00;;;;;16.52;60.07;100659.31;5058244;28;45624;-65
2022/09/25 00:07:55;;;;;;;;;6.00;6.00;;;;;16.45;59.44;100660.66;5039773;28;45481;-66
2022/09/25 00:10:23;;;;;;;;;4.67;4.67;;;;;16.33;60.36;100648.94;5057539;28;45409;-66
2022/09/25 00:12:48;;;;;;;;;7.33;6.00;;;;;16.34;59.59;100658.63;5058244;28;45557;-65
2022/09/25 00:15:14;;;;;;;;;6.67;6.00;;;;;16.35;59.54;100663.84;5039968;28;45871;-65
2022/09/25 00:17:39;;;;;;;;;7.00;7.00;;;;;16.26;60.20;100668.84;5058464;28;45446;-65
2022/09/25 00:20:05;;;;;;;;;7.00;7.00;;;;;16.33;59.30;100670.16;5056279;28;45438;-65
2022/09/25 00:22:30;;;;;;;;;7.00;7.00;;;;;16.33;60.08;100671.06;5048618;28;45415;-65
2022/09/25 00:24:56;;;;;;;;;7.67;7.67;;;;;16.18;60.18;100656.00;5037769;28;45384;-65
2022/09/25 00:27:22;;;;;;;;;7.00;7.00;;;;;16.30;60.22;100667.69;5050362;28;45468;-65
2022/09/25 00:29:47;;;;;;;;;7.00;6.67;;;;;16.31;59.58;100680.91;5058913;28;45437;-65
2022/09/25 00:32:14;;;;;;;;;7.00;6.00;;;;;16.26;60.37;100676.81;5039827;28;45415;-65
2022/09/25 00:34:39;;;;;;;;;4.00;4.00;;;;;16.29;60.58;100679.28;5040420;28;46091;-65
2022/09/25 00:37:06;;;;;;;;;8.00;6.67;;;;;16.27;59.97;100676.69;5037602;28;45369;-65
2022/09/25 00:39:32;;;;;;;;;5.00;5.00;;;;;16.22;60.04;100670.78;5050226;28;45397;-65
2022/09/25 00:41:58;;;;;;;;;5.33;5.33;;;;;16.23;59.96;100663.72;5057492;28;45573;-65
2022/09/25 00:44:56;;;;;;;;;4.67;4.67;;;;;16.24;60.70;100668.06;5056953;28;46625;-65
2022/09/25 00:47:56;;;;;;;;;5.00;5.00;;;;;16.26;60.87;100671.50;5055655;28;45477;-65
2022/09/25 00:50:25;;;;;;;;;4.67;4.67;;;;;16.19;60.62;100670.13;5050949;28;45323;-64
2022/09/25 00:52:54;;;;;;;;;7.00;6.00;;;;;16.19;60.45;100657.72;5037274;28;45487;-64
2022/09/25 00:55:22;;;;;;;;;5.33;5.33;;;;;16.20;60.33;100658.56;5037204;28;45408;-64
2022/09/25 00:57:52;;;;;;;;;6.00;6.00;;;;;16.17;60.07;100654.28;5037255;28;45420;-64
2022/09/25 01:00:17;;;;;;;;;6.00;5.33;;;;;16.20;60.58;100659.44;5040623;28;45458;-64
2022/09/25 01:02:47;;;;;;;;;6.00;6.00;;;;;16.12;60.58;100653.72;5056792;28;45658;-65
2022/09/25 01:05:17;;;;;;;;;7.00;7.00;;;;;16.17;60.33;100659.59;5056561;28;46262;-64
2022/09/25 01:07:46;;;;;;;;;7.00;7.00;;;;;16.12;59.98;100654.56;5056775;28;45459;-64
2022/09/25 01:10:13;;;;;;;;;6.67;6.67;;;;;16.13;60.91;100656.25;5056339;28;45529;-65
2022/09/25 01:12:42;;;;;;;;;7.67;6.33;;;;;16.12;61.34;100656.38;5056146;28;45411;-64
2022/09/25 01:15:11;;;;;;;;;8.00;8.00;;;;;16.11;60.38;100654.63;5056119;28;46103;-64
2022/09/25 01:17:55;;;;;;;;;7.33;7.33;;;;;16.14;60.60;100670.38;5056947;28;45327;-65
2022/09/25 01:20:35;;;;;;;;;6.67;6.67;;;;;16.16;60.49;100665.00;5056681;28;45419;-66
2022/09/25 01:23:26;;;;;;;;;7.00;6.00;;;;;16.13;61.07;100661.56;5057069;28;45492;-65
2022/09/25 01:26:10;;;;;;;;;6.00;6.00;;;;;16.13;60.37;100668.69;5055272;28;46995;-65
2022/09/25 01:29:00;;;;;;;;;5.33;5.00;;;;;16.15;60.28;100672.09;5056970;28;45411;-65
2022/09/25 01:31:34;;;;;;;;;8.00;7.00;;;;;16.12;60.94;100667.84;5056036;28;45526;-65
2022/09/25 01:34:07;;;;;;;;;7.33;6.00;;;;;16.08;60.92;100657.47;5056423;28;45398;-65
2022/09/25 01:36:41;;;;;;;;;7.00;7.00;;;;;16.07;60.84;100653.97;5055491;28;45605;-65
2022/09/25 01:39:20;;;;;;;;;6.00;6.00;;;;;16.09;60.21;100657.41;5056609;28;45417;-65
2022/09/25 01:41:56;;;;;;;;;8.00;6.67;;;;;16.15;60.99;100661.50;5056542;28;45502;-65
2022/09/25 01:44:27;;;;;;;;;7.67;7.67;;;;;16.16;61.05;100662.34;5037618;28;45791;-65
2022/09/25 01:46:58;;;;;;;;;7.67;7.00;;;;;16.17;61.29;100661.38;5055788;28;46146;-65
2022/09/25 01:49:32;;;;;;;;;8.67;6.33;;;;;16.12;61.05;100661.69;5055532;28;45513;-65
2022/09/25 01:52:01;;;;;;;;;10.00;8.67;;;;;16.03;60.84;100644.47;5038775;28;45451;-65
2022/09/25 01:54:37;;;;;;;;;9.33;8.00;;;;;16.04;61.17;100659.47;5065233;28;45447;-64
2022/09/25 01:57:12;;;;;;;;;7.00;7.00;;;;;15.99;61.30;100648.25;5076856;28;45356;-64
2022/09/25 02:00:00;;;;;;;;;6.67;6.00;;;;;16.06;60.77;100654.91;5065871;28;45358;-64
2022/09/25 02:02:32;;;;;;;;;7.00;7.00;;;;;16.04;61.49;100656.81;5034446;28;45602;-65
2022/09/25 02:05:06;;;;;;;;;6.33;6.33;;;;;16.07;61.02;100661.09;5036442;28;45336;-65
2022/09/25 02:07:36;;;;;;;;;9.67;8.00;;;;;16.04;60.65;100667.41;5038636;28;45493;-65
2022/09/25 02:10:07;;;;;;;;;7.33;7.33;;;;;16.07;61.19;100669.03;5055687;28;45463;-65
2022/09/25 02:12:39;;;;;;;;;6.00;6.00;;;;;16.04;60.43;100659.47;5056366;28;45652;-65
2022/09/25 02:15:13;;;;;;;;;10.67;8.00;;;;;16.03;61.13;100662.19;5056133;28;45438;-65
2022/09/25 02:20:35;;;;;;;;;7.67;7.67;;;;;16.02;60.78;100664.00;5056183;28;45443;-65
2022/09/25 02:23:13;;;;;;;;;7.33;7.33;;;;;15.96;60.78;100664.34;5055402;28;45521;-65
2022/09/25 02:26:05;;;;;;;;;7.33;5.67;;;;;15.94;62.02;100660.06;5056249;28;45369;-65
2022/09/25 02:28:31;;;;;;;;;7.67;6.67;;;;;15.92;60.95;100661.94;5056422;28;46630;-65
2022/09/25 02:30:59;;;;;;;;;9.33;7.00;;;;;15.82;61.63;100653.63;5055904;28;45478;-65
2022/09/25 02:33:26;;;;;;;;;6.00;6.00;;;;;15.86;62.55;100665.81;5055986;28;45419;-65
2022/09/25 02:35:52;;;;;;;;;6.67;6.67;;;;;15.84;61.77;100663.22;5037791;28;45517;-65
2022/09/25 02:38:19;;;;;;;;;7.00;7.00;;;;;15.81;61.52;100665.19;5054664;28;46686;-65
2022/09/25 02:41:37;;;;;;;;;7.00;7.00;;;;;15.74;62.00;100639.97;5055525;28;45486;-65
2022/09/25 02:44:11;;;;;;;;;8.67;8.67;;;;;15.85;62.26;100658.78;4954288;28;45490;-64
2022/09/25 02:46:58;;;;;;;;;7.00;7.00;;;;;15.83;61.29;100658.88;4954253;28;45422;-64
2022/09/25 02:50:04;;;;;;;;;5.67;5.67;;;;;15.80;61.05;100663.50;5030528;28;45596;-64
2022/09/25 02:52:49;;;;;;;;;8.33;8.33;;;;;15.73;61.67;100648.88;5041432;28;45400;-64
2022/09/25 02:55:29;;;;;;;;;9.67;7.00;;;;;15.77;61.21;100658.34;5054599;28;45510;-64
2022/09/25 02:58:02;;;;;;;;;8.00;7.00;;;;;15.73;61.86;100648.88;5055619;28;45335;-64
2022/09/25 03:00:28;;;;;;;;;9.00;8.00;;;;;15.77;61.38;100658.34;5055275;28;45702;-64
2022/09/25 03:02:58;;;;;;;;;8.33;6.67;;;;;15.75;62.21;100665.56;5055659;28;45492;-64
2022/09/25 03:05:25;;;;;;;;;7.67;7.67;;;;;15.73;62.07;100667.44;5055664;28;45384;-64
2022/09/25 03:10:37;;;;;;;;;7.33;7.00;;;;;15.71;62.67;100680.75;5057324;28;45744;-65
2022/09/25 03:13:16;;;;;;;;;7.67;7.00;;;;;15.62;62.37;100675.94;5057951;28;45862;-65
2022/09/25 03:15:45;;;;;;;;;7.67;7.67;;;;;15.64;62.52;100687.31;5059193;28;45402;-64
2022/09/25 03:18:13;;;;;;;;;7.00;7.00;;;;;15.61;63.53;100684.84;5041071;28;45427;-64
2022/09/25 03:20:39;;;;;;;;;8.67;8.67;;;;;15.61;62.34;100676.91;5040438;28;46487;-64
2022/09/25 03:23:05;;;;;;;;;7.00;7.00;;;;;15.63;62.01;100682.94;5057873;28;45415;-64
2022/09/25 03:25:30;;;;;;;;;8.67;8.67;;;;;15.56;63.46;100679.78;5059005;28;45457;-64
2022/09/25 03:27:56;;;;;;;;;7.67;7.67;;;;;15.60;62.34;100681.31;5058858;28;45399;-65
2022/09/25 03:30:22;;;;;;;;;9.00;7.67;;;;;15.62;62.36;100684.75;5058421;28;45548;-64
2022/09/25 03:32:47;;;;;;;;;7.00;7.00;;;;;15.57;62.07;100681.50;5058132;28;45486;-64
2022/09/25 03:35:13;;;;;;;;;9.67;9.67;;;;;15.58;62.90;100690.28;5058542;28;45459;-64
2022/09/25 03:37:38;;;;;;;;;10.67;9.33;;;;;15.62;62.52;100687.41;5056634;28;45885;-64
2022/09/25 03:40:04;;;;;;;;;10.33;10.33;;;;;15.60;62.93;100686.63;5057879;28;46761;-64
2022/09/25 03:42:31;;;;;;;;;6.67;6.67;;;;;15.60;63.07;100696.38;5058581;28;45530;-64
2022/09/25 03:44:56;;;;;;;;;9.00;9.00;;;;;15.57;62.32;100691.25;5040193;28;45406;-65
2022/09/25 03:47:21;;;;;;;;;8.00;8.00;;;;;15.55;63.22;100699.28;5056870;28;45587;-65
2022/09/25 03:49:47;;;;;;;;;10.67;10.33;;;;;15.52;63.19;100694.13;5058434;28;45476;-64
2022/09/25 03:52:13;;;;;;;;;10.33;9.67;;;;;15.47;63.18;100696.19;5058535;28;45438;-64
2022/09/25 03:54:39;;;;;;;;;11.33;11.33;;;;;15.41;63.27;100683.28;5058658;28;45422;-64
2022/09/25 03:57:05;;;;;;;;;8.67;7.33;;;;;15.47;63.11;100706.78;5058115;28;45396;-64
2022/09/25 03:59:30;;;;;;;;;10.00;8.67;;;;;15.49;63.39;100694.31;5057549;28;45398;-64
2022/09/25 04:01:55;;;;;;;;;12.00;10.00;;;;;15.47;64.04;100693.53;5056813;28;45383;-64
2022/09/25 04:04:21;;;;;;;;;10.67;8.00;;;;;15.50;63.31;100700.47;5058326;28;45369;-64
2022/09/25 04:06:47;;;;;;;;;10.67;10.00;;;;;15.49;62.93;100694.31;5058264;28;45622;-65
2022/09/25 04:09:12;;;;;;;;;10.00;10.00;;;;;15.42;62.41;100687.63;5058169;28;45303;-64
2022/09/25 04:11:37;;;;;;;;;6.33;6.33;;;;;15.56;63.48;100708.94;5057943;28;45479;-64
2022/09/25 04:14:03;;;;;;;;;11.67;9.33;;;;;15.55;62.72;100701.91;5057806;28;45371;-65
2022/09/25 04:16:30;;;;;;;;;9.33;8.00;;;;;15.53;62.86;100706.47;5057498;28;45422;-64
2022/09/25 04:18:56;;;;;;;;;10.00;8.33;;;;;15.54;63.55;100702.88;5057354;28;45524;-64
2022/09/25 04:21:21;;;;;;;;;8.33;7.33;;;;;15.51;62.67;100705.69;5057914;28;45434;-66
2022/09/25 04:24:46;;;;;;;;;8.67;8.00;;;;;15.49;62.43;100704.91;5057277;28;45570;-64
2022/09/25 04:26:33;;;;;;;;;10.00;7.67;;;;;15.47;62.50;100701.47;5058011;28;46177;-65
2022/09/25 04:29:02;;;;;;;;;9.00;8.00;;;;;15.46;62.60;100705.09;5057342;28;45551;-65
2022/09/25 04:31:28;;;;;;;;;8.33;8.33;;;;;15.41;62.39;100707.97;5056627;28;45569;-64
2022/09/25 04:33:53;;;;;;;;;9.67;8.00;;;;;15.27;62.29;100681.38;5056703;28;45381;-64
2022/09/25 04:36:18;;;;;;;;;8.67;8.67;;;;;15.38;63.78;100702.00;5057920;28;45343;-64
2022/09/25 04:38:45;;;;;;;;;12.00;10.67;;;;;15.37;63.13;100700.28;5056899;28;46445;-64
2022/09/25 04:41:10;;;;;;;;;8.67;8.67;;;;;15.40;62.98;100706.28;5056316;28;45729;-64
2022/09/25 04:43:36;;;;;;;;;8.33;8.33;;;;;15.37;63.38;100703.78;5039289;28;45409;-65
2022/09/25 04:46:03;;;;;;;;;9.33;8.00;;;;;15.37;63.31;100701.13;5039337;28;45410;-64
2022/09/25 04:48:29;;;;;;;;;10.33;10.33;;;;;15.39;62.08;100712.53;5039258;28;46383;-65
2022/09/25 04:50:54;;;;;;;;;11.00;9.33;;;;;15.39;62.34;100714.28;5057090;28;45392;-65
2022/09/25 04:53:19;;;;;;;;;11.00;11.00;;;;;15.41;63.25;100715.06;5057384;28;45380;-65
2022/09/25 04:55:46;;;;;;;;;10.67;10.67;;;;;15.39;62.72;100720.47;5039561;28;45506;-65
2022/09/25 04:58:11;;;;;;;;;10.33;10.33;;;;;15.39;63.29;100725.78;5056919;28;45485;-65
2022/09/25 05:00:38;;;;;;;;;14.67;12.33;;;;;15.39;63.33;100724.88;5057472;28;45501;-65
2022/09/25 05:03:04;;;;;;;;;13.33;11.00;;;;;15.38;63.67;100720.53;5057449;28;45462;-65
2022/09/25 05:05:30;;;;;;;;;12.33;10.67;;;;;15.38;63.38;100723.19;5056943;28;45450;-65
2022/09/25 05:07:57;;;;;;;;;11.67;11.67;;;;;15.39;62.69;100728.44;5056470;28;45570;-65
2022/09/25 05:10:29;;;;;;;;;15.00;13.67;;;;;15.32;62.85;100729.69;5056863;28;45410;-65
2022/09/25 05:12:59;;;;;;;;;12.33;12.33;;;;;15.36;63.29;100727.72;5056946;28;45468;-65
2022/09/25 05:15:27;;;;;;;;;15.33;14.33;;;;;15.40;62.29;100729.28;5038983;28;45602;-65
2022/09/25 05:18:06;;;;;;;;;13.00;13.00;;;;;15.40;62.56;100735.44;5038743;28;46999;-65
2022/09/25 05:20:34;;;;;;;;;11.67;11.67;;;;;15.42;62.83;100740.63;5056627;28;45452;-65
2022/09/25 05:23:00;;;;;;;;;18.00;18.00;;;;;15.41;63.52;100736.28;5037284;28;46008;-65
2022/09/25 05:25:26;;;;;;;;;13.33;12.00;;;;;15.45;62.89;100738.69;5056826;28;45391;-65
2022/09/25 05:27:56;;;;;;;;;15.33;14.33;;;;;15.42;62.22;100737.97;5056894;28;45380;-65
2022/09/25 05:30:22;;;;;;;;;13.33;11.33;;;;;15.41;62.83;100737.13;5054546;28;45440;-64
2022/09/25 05:32:49;;;;;;;;;14.00;12.67;;;;;15.44;62.71;100750.22;5054731;28;45453;-65
2022/09/25 05:35:16;;;;;;;;;15.00;13.00;;;;;15.45;62.96;100751.09;5057027;28;45458;-64
2022/09/25 05:37:42;;;;;;;;;13.00;13.00;;;;;15.45;62.66;100745.78;5056686;28;45398;-65
2022/09/25 05:40:08;;;;;;;;;20.00;18.00;;;;;15.41;62.81;100747.72;5055961;28;45370;-64
2022/09/25 05:42:33;;;;;;;;;14.00;13.00;;;;;15.46;62.44;100742.19;5056735;28;45432;-64
2022/09/25 05:44:59;;;;;;;;;11.67;10.67;;;;;15.47;62.81;100738.59;5056547;28;45653;-64
2022/09/25 05:47:24;;;;;;;;;17.33;14.67;;;;;15.50;62.69;100740.22;5034982;28;48168;-65
2022/09/25 05:49:49;;;;;;;;;14.33;14.33;;;;;15.45;61.73;100744.00;5056527;28;45463;-65
2022/09/25 05:52:15;;;;;;;;;12.67;12.67;;;;;15.42;62.39;100749.47;5056642;28;45462;-65
2022/09/25 05:54:40;;;;;;;;;17.00;16.33;;;;;15.36;62.33;100747.13;5056201;28;45418;-65
2022/09/25 05:57:06;;;;;;;;;15.00;15.00;;;;;15.40;62.47;100758.44;5042583;28;45790;-66
2022/09/25 05:59:33;;;;;;;;;15.00;13.67;;;;;15.42;61.80;100764.47;5035994;28;45513;-65
2022/09/25 06:01:58;;;;;;;;;16.67;11.67;;;;;15.44;62.32;100760.81;5036293;28;45462;-65
2022/09/25 06:04:24;;;;;;;;;13.00;12.67;;;;;15.44;62.62;100765.25;5035938;28;48837;-65
2022/09/25 06:06:49;;;;;;;;;16.33;14.00;;;;;15.42;62.40;100764.47;5050776;28;47048;-65
2022/09/25 06:09:14;;;;;;;;;11.67;11.67;;;;;15.40;61.88;100766.38;5056164;28;45420;-66
2022/09/25 06:11:40;;;;;;;;;12.33;12.33;;;;;15.37;61.68;100769.19;5055590;28;45450;-65
2022/09/25 06:14:05;;;;;;;;;13.67;13.33;;;;;15.33;62.44;100757.03;5056234;28;45652;-65
2022/09/25 06:16:30;;;;;;;;;14.67;11.33;;;;;15.34;62.34;100772.88;5064812;28;56063;-65
2022/09/25 06:18:56;;;;;;;;;12.67;11.67;;;;;15.36;62.33;100770.13;5060176;28;45426;-65
2022/09/25 06:21:21;;;;;;;;;11.67;11.67;;;;;15.34;61.40;100780.81;5048122;28;45455;-64
2022/09/25 06:23:47;;;;;;;;;12.67;11.00;;;;;15.31;62.08;100788.03;5040938;28;45537;-64
2022/09/25 06:26:13;;;;;;;;;13.67;11.00;;;;;15.14;62.45;100763.28;5046676;28;45624;-64
2022/09/25 06:28:38;;;;;;;;;14.33;13.33;;;;;15.24;61.91;100774.28;5044993;28;45383;-64
2022/09/25 06:31:04;;;;;;;;;14.33;12.67;;;;;15.21;61.84;100779.72;5038108;28;45557;-64
2022/09/25 06:33:30;;;;;;;;;9.00;9.00;;;;;15.22;61.64;100782.28;5024742;28;45598;-63
2022/09/25 06:35:56;;;;;;;;;11.00;10.67;;;;;15.22;61.68;100781.44;5036967;28;45581;-64
2022/09/25 06:38:21;;;;;;;;;14.00;10.67;;;;;15.16;61.92;100782.63;5045080;28;45516;-63
2022/09/25 06:40:49;;;;;;;;;10.00;10.00;;;;;15.15;61.81;100791.50;5039731;28;45451;-63
2022/09/25 06:43:15;;;;;;;;;10.00;9.67;;;;;15.12;61.87;100790.78;5048613;28;45505;-63
2022/09/25 06:45:42;;;;;;;;;8.33;8.33;;;;;15.08;61.49;100795.41;5035519;28;46069;-64
2022/09/25 06:48:11;;;;;;;;;11.33;10.33;;;;;15.07;61.64;100793.69;5048441;28;45461;-65
2022/09/25 06:50:41;;;;;;;;;9.00;8.33;;;;;15.07;61.30;100793.69;5055738;28;45476;-65
2022/09/25 06:53:07;;;;;;;;;8.33;8.33;;;;;15.02;62.23;100787.78;5042190;28;45406;-65
2022/09/25 06:55:36;;;;;;;;;10.00;9.00;;;;;15.04;61.56;100793.81;5035279;28;45428;-65
2022/09/25 06:58:03;;;;;;;;;10.00;10.00;;;;;14.98;61.44;100772.94;5048435;28;45439;-65
2022/09/25 07:00:29;;;;;;;;;13.00;11.67;;;;;15.03;61.90;100779.72;5037649;28;45527;-65
2022/09/25 07:05:43;;;;;;;;;8.00;7.33;;;;;14.99;61.21;100796.72;5048872;28;45888;-65
2022/09/25 07:08:10;;;;;;;;;10.00;10.00;;;;;15.00;61.39;100789.63;5036468;28;45482;-64
2022/09/25 07:10:35;;;;;;;;;9.00;7.67;;;;;15.03;61.03;100792.13;5054596;28;45465;-65
2022/09/25 07:13:00;;;;;;;;;9.00;9.00;;;;;15.02;61.84;100790.41;5032536;28;45550;-65
2022/09/25 07:15:26;;;;;;;;;6.67;5.33;;;;;15.03;60.97;100797.41;5055015;28;46556;-70
2022/09/25 07:17:51;;;;;;;;;7.33;6.33;;;;;15.06;61.09;100799.06;5055318;28;45366;-70
2022/09/25 07:20:16;;;;;;;;;10.00;9.67;;;;;15.02;60.48;100790.41;5044467;28;45442;-70
2022/09/25 07:22:42;;;;;;;;;6.00;6.00;;;;;15.02;61.12;100791.28;5035432;28;45547;-72
2022/09/25 07:25:09;;;;;;;;;11.33;8.67;;;;;14.97;61.55;100792.44;5035024;28;45627;-69
2022/09/25 07:27:35;;;;;;;;;9.00;7.33;;;;;14.93;60.23;100789.06;5034796;28;45418;-71
2022/09/25 07:30:01;;;;;;;;;7.00;7.00;;;;;14.89;61.08;100787.53;5035443;28;45364;-69
2022/09/25 07:32:26;;;;;;;;;11.00;8.33;;;;;14.89;62.08;100795.47;5027495;28;45483;-65
2022/09/25 07:34:51;;;;;;;;;9.33;7.67;;;;;14.92;61.15;100800.59;5054532;28;48107;-67
2022/09/25 07:37:17;;;;;;;;;6.67;5.67;;;;;14.97;60.64;100800.38;5048574;28;49395;-64
2022/09/25 07:39:43;;;;;;;;;6.67;6.67;;;;;14.94;61.56;100801.41;5052747;28;45368;-65
2022/09/25 07:42:08;;;;;;;;;7.67;6.00;;;;;14.97;60.39;100809.19;5053988;28;45465;-71
2022/09/25 07:44:34;;;;;;;;;8.33;8.33;;;;;14.98;60.61;100810.03;5036826;28;46596;-70
2022/09/25 07:47:01;;;;;;;;;5.00;5.00;;;;;14.96;60.70;100796.00;5054805;28;45403;-69
2022/09/25 07:49:27;;;;;;;;;4.33;4.33;;;;;15.05;60.71;100814.09;5054570;28;45486;-70
2022/09/25 07:51:53;;;;;;;;;5.00;5.00;;;;;15.04;60.81;100825.59;5054682;28;45427;-69
2022/09/25 07:54:22;;;;;;;;;5.67;4.67;;;;;15.01;60.35;100816.03;5057441;28;46092;-69
2022/09/25 07:56:47;;;;;;;;;6.00;6.00;;;;;14.99;61.02;100817.91;5040824;28;45477;-63
2022/09/25 07:59:12;;;;;;;;;5.67;5.67;;;;;15.05;59.93;100824.69;5037842;28;45420;-63
2022/09/25 08:01:38;;;;;;;;;6.00;6.00;;;;;15.07;60.98;100819.31;5037955;28;45501;-60
2022/09/25 08:04:03;;;;;;;;;3.00;2.00;;;;;15.05;59.86;100816.75;5037726;28;45436;-69
2022/09/25 08:06:29;;;;;;;;;6.33;4.67;;;;;15.08;60.11;100826.34;5020069;28;45334;-61
2022/09/25 08:08:54;;;;;;;;;5.00;3.67;;;;;15.06;59.98;100814.94;5048918;28;45493;-62
2022/09/25 08:11:20;;;;;;;;;5.00;4.67;;;;;15.06;60.35;100818.44;5051814;28;45473;-62
2022/09/25 08:13:45;;;;;;;;;8.00;5.67;;;;;15.14;60.13;100820.72;5053190;28;45446;-65
2022/09/25 08:16:16;;;;;;;;;6.67;5.00;;;;;15.21;60.81;100822.97;5051109;28;45427;-65
2022/09/25 08:18:45;;;;;;;;;4.00;4.00;;;;;15.21;60.38;100822.13;5056363;28;45515;-71
2022/09/25 08:21:13;;;;;;;;;4.33;4.00;;;;;15.25;59.91;100827.16;5037783;28;45634;-71
2022/09/25 08:23:39;;;;;;;;;5.00;5.00;;;;;15.30;59.15;100826.94;5057842;28;45437;-70
2022/09/25 08:26:05;;;;;;;;;4.00;4.00;;;;;15.31;58.60;100814.53;5056722;28;45479;-70
2022/09/25 08:28:31;;;;;;;;;5.00;5.00;;;;;15.36;59.61;100825.78;5057627;28;45411;-69
2022/09/25 08:30:58;;;;;;;;;4.00;4.00;;;;;15.40;59.80;100830.00;5058437;28;45562;-65
2022/09/25 08:33:23;;;;;;;;;4.00;4.00;;;;;15.42;59.08;100831.63;5052819;28;46698;-66
2022/09/25 08:36:16;;;;;;;;;4.33;4.33;;;;;15.44;58.68;100832.38;5041348;28;45531;-70
2022/09/25 08:38:41;;;;;;;;;4.33;3.33;;;;;15.47;58.73;100826.06;5053007;28;45426;-73
2022/09/25 08:41:26;;;;;;;;;2.33;2.33;;;;;15.59;59.23;100837.84;5057080;28;45720;-72
2022/09/25 08:43:56;;;;;;;;;2.67;2.67;;;;;15.58;58.13;100838.75;5057254;28;45599;-70
2022/09/25 08:49:13;;;;;;;;;2.67;2.00;;;;;15.68;58.14;100830.28;5052030;28;45569;-68
2022/09/25 08:51:43;;;;;;;;;1.67;1.67;;;;;15.77;57.34;100834.25;5037171;28;45549;-67
2022/09/25 08:54:18;;;;;;;;;5.33;5.33;;;;;15.83;57.41;100835.72;5043571;28;46697;-62
2022/09/25 08:56:43;;;;;;;;;2.00;2.00;;;;;15.90;57.01;100827.34;5038280;28;45479;-64
2022/09/25 08:59:32;;;;;;;;;2.33;2.33;;;;;15.93;57.28;100821.00;5057071;28;45518;-68
2022/09/25 09:02:10;;;;;;;;;4.33;3.33;;;;;16.02;56.92;100817.88;5057630;28;45364;-64
2022/09/25 09:04:48;;;;;;;;;1.00;1.00;;;;;16.07;56.55;100834.38;5055880;28;45703;-63
2022/09/25 09:07:21;;;;;;;;;2.00;2.00;;;;;16.08;55.63;100824.63;5057548;28;45439;-65
2022/09/25 09:10:19;;;;;;;;;2.33;1.67;;;;;16.09;56.31;100821.03;5057509;28;45425;-64
2022/09/25 09:12:49;;;;;;;;;2.00;2.00;;;;;16.16;55.81;100830.38;5057478;28;45446;-66
2022/09/25 09:15:34;;;;;;;;;2.00;1.67;;;;;16.20;56.34;100841.66;5057107;28;45591;-65
2022/09/25 09:18:08;;;;;;;;;3.00;3.00;;;;;16.13;55.49;100825.22;5056811;28;45441;-63
2022/09/25 09:20:48;;;;;;;;;3.00;3.00;;;;;16.16;54.91;100834.81;5057190;28;45407;-63
2022/09/25 09:23:18;;;;;;;;;1.33;1.33;;;;;16.17;54.99;100828.56;5038895;28;45378;-66
2022/09/25 09:25:59;;;;;;;;;3.00;2.00;;;;;16.18;54.77;100830.31;5057078;28;45647;-64
2022/09/25 09:28:58;;;;;;;;;2.67;2.67;;;;;16.23;54.19;100830.91;5057044;28;45450;-63
2022/09/25 09:31:45;;;;;;;;;1.00;1.00;;;;;16.20;54.20;100817.78;5056990;28;45388;-66
2022/09/25 09:34:29;;;;;;;;;3.33;2.00;;;;;16.33;53.68;100825.00;5051091;28;45779;-62
2022/09/25 09:37:14;;;;;;;;;1.00;1.00;;;;;16.37;53.88;100827.47;5052664;28;46332;-61
2022/09/25 09:39:40;;;;;;;;;1.00;1.00;;;;;16.37;52.90;100836.28;5055850;28;45529;-63
2022/09/25 09:42:31;;;;;;;;;1.33;1.33;;;;;16.42;54.03;100834.25;5056758;28;45550;-64
2022/09/25 09:45:03;;;;;;;;;1.00;1.00;;;;;16.46;53.23;100835.75;5057098;28;45548;-65
2022/09/25 09:47:49;;;;;;;;;1.67;1.67;;;;;16.48;53.75;100817.09;5056708;28;46206;-67
2022/09/25 09:50:39;;;;;;;;;1.00;1.00;;;;;16.56;52.43;100836.97;5056487;28;45342;-65
2022/09/25 09:53:44;;;;;;;;;0.00;0.00;;;;;16.63;52.28;100837.50;5056690;28;45494;-65
2022/09/25 09:56:27;;;;;;;;;2.67;2.00;;;;;16.67;51.49;100831.03;5032924;28;45700;-61
2022/09/25 09:58:57;;;;;;;;;2.33;2.33;;;;;16.84;51.00;100829.25;5056411;28;46277;-63
2022/09/25 10:01:25;;;;;;;;;1.00;1.00;;;;;16.89;50.33;100824.53;5056485;28;45589;-65
2022/09/25 10:04:07;;;;;;;;;0.00;0.00;;;;;16.91;50.13;100831.47;5056432;28;45487;-62
2022/09/25 10:06:37;;;;;;;;;0.00;0.00;;;;;16.95;49.96;100822.38;5056138;28;45533;-62
2022/09/25 10:09:03;;;;;;;;;3.67;1.33;;;;;17.06;49.52;100831.50;5056335;28;45662;-63
2022/09/25 10:11:30;;;;;;;;;3.00;2.00;;;;;17.08;48.63;100834.94;5056388;28;45388;-63
2022/09/25 10:13:58;;;;;;;;;1.33;1.33;;;;;17.10;49.06;100819.75;5056471;28;45434;-68
2022/09/25 10:16:25;;;;;;;;;1.67;1.67;;;;;17.09;49.71;100820.72;5053016;28;45617;-65
2022/09/25 10:19:00;;;;;;;;;1.00;1.00;;;;;17.08;49.61;100813.69;5024826;28;48447;-68
2022/09/25 10:21:38;;;;;;;;;2.67;1.67;;;;;17.11;48.14;100806.38;5053677;28;45415;-66
2022/09/25 10:24:05;;;;;;;;;2.00;0.33;;;;;17.14;47.43;100822.16;5049575;28;45351;-66
2022/09/25 10:26:38;;;;;;;;;2.00;2.00;;;;;17.16;47.10;100816.75;5035826;28;45594;-68
2022/09/25 10:29:26;;;;;;;;;1.00;1.00;;;;;17.22;48.35;100816.38;5047491;28;46541;-65
2022/09/25 10:32:02;;;;;;;;;5.00;2.00;;;;;17.23;47.56;100816.28;5038486;28;45478;-64
2022/09/25 10:34:30;;;;;;;;;0.00;0.00;;;;;17.23;47.60;100802.16;5055259;28;45462;-62
2022/09/25 10:36:56;;;;;;;;;0.00;0.00;;;;;17.26;47.16;100801.97;5056195;28;45603;-64
2022/09/25 10:39:38;;;;;;;;;0.67;0.67;;;;;17.34;46.64;100807.66;5046374;28;46066;-62
2022/09/25 10:42:25;;;;;;;;;1.67;1.67;;;;;17.37;46.66;100807.47;5043910;28;45446;-65
2022/09/25 10:44:55;;;;;;;;;1.00;1.00;;;;;17.39;47.13;100805.59;5043162;28;45593;-67
2022/09/25 10:50:37;;;;;;;;;4.33;3.00;;;;;17.42;46.17;100800.06;5055663;28;45419;-68
2022/09/25 10:53:04;;;;;;;;;5.67;5.67;;;;;17.45;46.70;100794.56;5051488;28;45507;-67
2022/09/25 10:55:42;;;;;;;;;6.67;6.67;;;;;17.52;46.68;100799.53;5056077;28;45427;-66
2022/09/25 10:58:20;;;;;;;;;2.67;2.67;;;;;17.56;46.50;100796.56;5055813;28;45385;-64
2022/09/25 11:00:52;;;;;;;;;4.33;4.00;;;;;17.60;44.99;100799.91;5055313;28;46243;-66
2022/09/25 11:03:25;;;;;;;;;1.00;1.00;;;;;17.55;44.95;100794.03;5055689;28;45377;-65
2022/09/25 11:06:00;;;;;;;;;0.33;0.33;;;;;17.57;45.13;100792.09;5054783;28;45574;-66
2022/09/25 11:08:29;;;;;;;;;1.00;1.00;;;;;17.51;44.85;100780.03;5054592;28;45643;-66
2022/09/25 11:10:57;;;;;;;;;3.00;3.00;;;;;17.64;45.03;100799.63;5055222;28;45371;-66
2022/09/25 11:13:27;;;;;;;;;1.00;1.00;;;;;17.64;45.63;100793.44;5055205;28;45477;-67
2022/09/25 11:15:59;;;;;;;;;4.67;4.67;;;;;17.69;46.07;100804.66;5055230;28;45498;-65
2022/09/25 11:18:41;;;;;;;;;1.33;0.33;;;;;17.73;45.31;100805.31;5054803;28;45496;-66
2022/09/25 11:21:28;;;;;;;;;1.00;1.00;;;;;17.75;45.00;100806.94;5055456;28;45654;-67
2022/09/25 11:24:00;;;;;;;;;1.00;1.00;;;;;17.78;45.26;100795.25;5055130;28;45415;-67
2022/09/25 11:26:37;;;;;;;;;2.00;1.00;;;;;17.64;44.73;100777.50;5054585;28;45446;-67
2022/09/25 11:29:06;;;;;;;;;2.00;2.00;;;;;17.85;44.06;100813.44;5057650;28;45537;-67
2022/09/25 11:31:54;;;;;;;;;3.00;3.00;;;;;17.86;44.04;100811.63;5059549;28;46222;-66
2022/09/25 11:34:41;;;;;;;;;2.33;2.33;;;;;17.86;43.44;100809.81;5059083;28;45481;-67
2022/09/25 11:37:33;;;;;;;;;0.67;0.67;;;;;17.83;44.44;100804.69;5059003;28;45498;-68
2022/09/25 11:43:34;;;;;;;;;2.00;2.00;;;;;17.97;43.87;100803.81;5029447;28;45828;-67
2022/09/25 11:46:11;;;;;;;;;0.00;0.00;;;;;18.00;44.52;100800.97;5058615;28;45395;-67
2022/09/25 11:49:18;;;;;;;;;3.00;1.00;;;;;18.10;43.97;100811.88;5058542;28;45409;-64
2022/09/25 11:51:56;;;;;;;;;3.67;2.00;;;;;18.21;44.36;100811.19;5058587;28;45412;-64
2022/09/25 11:54:31;;;;;;;;;2.67;2.00;;;;;18.30;44.22;100815.94;5030926;28;47906;-65
2022/09/25 11:57:11;;;;;;;;;1.33;1.33;;;;;18.40;44.16;100809.06;5038576;28;45479;-64